sensor_id;sensor_type;location;lat;lon;timestamp;P1;durP1;ratioP1;P2;durP2;ratioP2
39340;SDS011;25059;52.132;21.062;2024-03-07T06:34:54;0.30;;;0.30;;
39340;SDS011;25059;52.132;21.062;2024-03-07T06:37:41;0.30;;;0.30;;
39340;SDS011;25059;52.132;21.062;2024-03-07T06:40:26;0.30;;;0.30;;
39340;SDS011;25059;52.132;21.062;2024-03-07T06:43:11;0.30;;;0.30;;
39340;SDS011;25059;52.132;21.062;2024-03-07T06:45:56;0.20;;;0.20;;
39340;SDS011;25059;52.132;21.062;2024-03-07T06:48:41;0.30;;;0.30;;
39340;SDS011;25059;52.132;21.062;2024-03-07T06:51:27;0.38;;;0.38;;
39340;SDS011;25059;52.132;21.062;2024-03-07T06:54:12;0.30;;;0.30;;
39340;SDS011;25059;52.132;21.062;2024-03-07T06:56:57;0.20;;;0.20;;
39340;SDS011;25059;52.132;21.062;2024-03-07T06:59:42;0.28;;;0.28;;
39340;SDS011;25059;52.132;21.062;2024-03-07T07:02:27;0.30;;;0.30;;
39340;SDS011;25059;52.132;21.062;2024-03-07T07:05:15;0.30;;;0.30;;
39340;SDS011;25059;52.132;21.062;2024-03-07T07:08:03;0.30;;;0.30;;
39340;SDS011;25059;52.132;21.062;2024-03-07T07:10:50;0.20;;;0.20;;
39340;SDS011;25059;52.132;21.062;2024-03-07T07:16:36;0.30;;;0.30;;
39340;SDS011;25059;52.132;21.062;2024-03-07T07:22:54;0.30;;;0.30;;
39340;SDS011;25059;52.132;21.062;2024-03-07T07:25:42;0.28;;;0.28;;
39340;SDS011;25059;52.132;21.062;2024-03-07T07:28:30;0.30;;;0.30;;
39340;SDS011;25059;52.132;21.062;2024-03-07T07:31:19;0.30;;;0.30;;
39340;SDS011;25059;52.132;21.062;2024-03-07T07:34:21;0.20;;;0.20;;
39340;SDS011;25059;52.132;21.062;2024-03-07T07:37:10;0.30;;;0.30;;
39340;SDS011;25059;52.132;21.062;2024-03-07T07:40:23;0.20;;;0.20;;
39340;SDS011;25059;52.132;21.062;2024-03-07T07:43:30;0.40;;;0.40;;
39340;SDS011;25059;52.132;21.062;2024-03-07T07:46:22;0.30;;;0.30;;
39340;SDS011;25059;52.132;21.062;2024-03-07T07:49:18;0.20;;;0.20;;
39340;SDS011;25059;52.132;21.062;2024-03-07T07:55:03;0.40;;;0.40;;
39340;SDS011;25059;52.132;21.062;2024-03-07T07:58:04;0.30;;;0.30;;
39340;SDS011;25059;52.132;21.062;2024-03-07T08:01:10;0.30;;;0.30;;
39340;SDS011;25059;52.132;21.062;2024-03-07T08:20:48;0.30;;;0.30;;
39340;SDS011;25059;52.132;21.062;2024-03-07T08:27:22;0.40;;;0.40;;
39340;SDS011;25059;52.132;21.062;2024-03-07T08:30:15;0.30;;;0.30;;
39340;SDS011;25059;52.132;21.062;2024-03-07T08:37:07;0.30;;;0.30;;
39340;SDS011;25059;52.132;21.062;2024-03-07T08:40:21;0.30;;;0.30;;
39340;SDS011;25059;52.132;21.062;2024-03-07T08:46:16;0.30;;;0.30;;
39340;SDS011;25059;52.132;21.062;2024-03-07T08:49:10;0.30;;;0.30;;
39340;SDS011;25059;52.132;21.062;2024-03-07T08:52:07;0.28;;;0.28;;
39340;SDS011;25059;52.132;21.062;2024-03-07T08:55:38;0.30;;;0.30;;
39340;SDS011;25059;52.132;21.062;2024-03-07T09:12:18;0.30;;;0.30;;
39340;SDS011;25059;52.132;21.062;2024-03-07T09:15:17;0.25;;;0.25;;
39340;SDS011;25059;52.132;21.062;2024-03-07T09:18:06;0.28;;;0.28;;
39340;SDS011;25059;52.132;21.062;2024-03-07T09:20:52;0.28;;;0.28;;
39340;SDS011;25059;52.132;21.062;2024-03-07T09:23:53;0.30;;;0.30;;
39340;SDS011;25059;52.132;21.062;2024-03-07T09:26:39;0.30;;;0.30;;
39340;SDS011;25059;52.132;21.062;2024-03-07T09:29:27;0.10;;;0.10;;
39340;SDS011;25059;52.132;21.062;2024-03-07T09:32:22;0.30;;;0.30;;
39340;SDS011;25059;52.132;21.062;2024-03-07T09:35:24;0.30;;;0.30;;
39340;SDS011;25059;52.132;21.062;2024-03-07T09:38:32;0.20;;;0.20;;
39340;SDS011;25059;52.132;21.062;2024-03-07T09:41:17;0.20;;;0.20;;
39340;SDS011;25059;52.132;21.062;2024-03-07T09:44:03;0.20;;;0.20;;
39340;SDS011;25059;52.132;21.062;2024-03-07T09:47:13;0.30;;;0.30;;
39340;SDS011;25059;52.132;21.062;2024-03-07T10:14:38;0.13;;;0.13;;
39340;SDS011;25059;52.132;21.062;2024-03-07T10:17:26;0.10;;;0.10;;
39340;SDS011;25059;52.132;21.062;2024-03-07T10:20:20;0.10;;;0.10;;
39340;SDS011;25059;52.132;21.062;2024-03-07T10:23:09;0.10;;;0.10;;
39340;SDS011;25059;52.132;21.062;2024-03-07T10:26:06;0.10;;;0.10;;
39340;SDS011;25059;52.132;21.062;2024-03-07T10:28:56;0.10;;;0.10;;
39340;SDS011;25059;52.132;21.062;2024-03-07T10:31:51;0.10;;;0.10;;
39340;SDS011;25059;52.132;21.062;2024-03-07T10:34:40;0.10;;;0.10;;
39340;SDS011;25059;52.132;21.062;2024-03-07T10:37:42;0.10;;;0.10;;
39340;SDS011;25059;52.132;21.062;2024-03-07T10:40:52;0.10;;;0.10;;
39340;SDS011;25059;52.132;21.062;2024-03-07T10:43:42;0.10;;;0.10;;
39340;SDS011;25059;52.132;21.062;2024-03-07T11:03:41;0.08;;;0.08;;
39340;SDS011;25059;52.132;21.062;2024-03-07T11:07:43;0.03;;;0.03;;
39340;SDS011;25059;52.132;21.062;2024-03-07T11:11:20;0.10;;;0.10;;
39340;SDS011;25059;52.132;21.062;2024-03-07T11:14:45;0.10;;;0.10;;
39340;SDS011;25059;52.132;21.062;2024-03-07T11:17:57;0.10;;;0.10;;
39340;SDS011;25059;52.132;21.062;2024-03-07T11:20:59;0.10;;;0.10;;
39340;SDS011;25059;52.132;21.062;2024-03-07T11:24:03;0.10;;;0.10;;
39340;SDS011;25059;52.132;21.062;2024-03-07T11:27:02;0.10;;;0.10;;
39340;SDS011;25059;52.132;21.062;2024-03-07T11:30:04;0.10;;;0.10;;
39340;SDS011;25059;52.132;21.062;2024-03-07T11:32:57;0.10;;;0.10;;
39340;SDS011;25059;52.132;21.062;2024-03-07T11:35:49;0.10;;;0.10;;
39340;SDS011;25059;52.132;21.062;2024-03-07T11:38:34;0.10;;;0.10;;
39340;SDS011;25059;52.132;21.062;2024-03-07T11:41:19;0.00;;;0.00;;
39340;SDS011;25059;52.132;21.062;2024-03-07T11:48:10;0.03;;;0.03;;
39340;SDS011;25059;52.132;21.062;2024-03-07T11:51:06;0.10;;;0.10;;
39340;SDS011;25059;52.132;21.062;2024-03-07T11:54:14;0.10;;;0.10;;
39340;SDS011;25059;52.132;21.062;2024-03-07T11:57:35;0.00;;;0.00;;
39340;SDS011;25059;52.132;21.062;2024-03-07T12:07:59;0.10;;;0.10;;
39340;SDS011;25059;52.132;21.062;2024-03-07T12:10:57;0.00;;;0.00;;
39340;SDS011;25059;52.132;21.062;2024-03-07T12:13:44;0.00;;;0.00;;
39340;SDS011;25059;52.132;21.062;2024-03-07T12:16:31;0.00;;;0.00;;
39340;SDS011;25059;52.132;21.062;2024-03-07T12:19:16;0.00;;;0.00;;
39340;SDS011;25059;52.132;21.062;2024-03-07T12:22:12;0.10;;;0.10;;
39340;SDS011;25059;52.132;21.062;2024-03-07T12:25:01;0.10;;;0.10;;
39340;SDS011;25059;52.132;21.062;2024-03-07T12:27:59;0.03;;;0.03;;
39340;SDS011;25059;52.132;21.062;2024-03-07T12:30:50;0.10;;;0.10;;
39340;SDS011;25059;52.132;21.062;2024-03-07T12:33:38;0.10;;;0.10;;
39340;SDS011;25059;52.132;21.062;2024-03-07T12:36:31;0.00;;;0.00;;
39340;SDS011;25059;52.132;21.062;2024-03-07T12:39:31;0.10;;;0.10;;
39340;SDS011;25059;52.132;21.062;2024-03-07T12:50:11;0.00;;;0.00;;
39340;SDS011;25059;52.132;21.062;2024-03-07T12:54:20;0.00;;;0.00;;
39340;SDS011;25059;52.132;21.062;2024-03-07T12:58:03;0.13;;;0.13;;
39340;SDS011;25059;52.132;21.062;2024-03-07T13:01:16;0.03;;;0.03;;
39340;SDS011;25059;52.132;21.062;2024-03-07T13:04:50;0.10;;;0.10;;
39340;SDS011;25059;52.132;21.062;2024-03-07T13:07:45;0.00;;;0.00;;
39340;SDS011;25059;52.132;21.062;2024-03-07T13:10:31;0.10;;;0.10;;
39340;SDS011;25059;52.132;21.062;2024-03-07T13:13:34;0.10;;;0.10;;
39340;SDS011;25059;52.132;21.062;2024-03-07T13:16:37;0.10;;;0.10;;
39340;SDS011;25059;52.132;21.062;2024-03-07T13:19:46;0.05;;;0.05;;
39340;SDS011;25059;52.132;21.062;2024-03-07T13:23:46;0.10;;;0.10;;
39340;SDS011;25059;52.132;21.062;2024-03-07T13:26:53;0.10;;;0.10;;
39340;SDS011;25059;52.132;21.062;2024-03-07T13:29:39;0.10;;;0.10;;
39340;SDS011;25059;52.132;21.062;2024-03-07T13:32:33;0.10;;;0.10;;
39340;SDS011;25059;52.132;21.062;2024-03-07T13:38:58;0.00;;;0.00;;
39340;SDS011;25059;52.132;21.062;2024-03-07T13:41:47;0.10;;;0.10;;
39340;SDS011;25059;52.132;21.062;2024-03-07T13:44:35;0.10;;;0.10;;
39340;SDS011;25059;52.132;21.062;2024-03-07T13:47:23;0.10;;;0.10;;
39340;SDS011;25059;52.132;21.062;2024-03-07T13:50:10;0.10;;;0.10;;
39340;SDS011;25059;52.132;21.062;2024-03-07T13:53:02;0.10;;;0.10;;
39340;SDS011;25059;52.132;21.062;2024-03-07T14:01:58;0.20;;;0.20;;
39340;SDS011;25059;52.132;21.062;2024-03-07T14:08:20;0.20;;;0.20;;
39340;SDS011;25059;52.132;21.062;2024-03-07T14:18:27;0.10;;;0.10;;
39340;SDS011;25059;52.132;21.062;2024-03-07T14:21:48;0.10;;;0.10;;
39340;SDS011;25059;52.132;21.062;2024-03-07T14:27:50;0.10;;;0.10;;
39340;SDS011;25059;52.132;21.062;2024-03-07T14:30:55;0.10;;;0.10;;
39340;SDS011;25059;52.132;21.062;2024-03-07T14:36:50;0.10;;;0.10;;
39340;SDS011;25059;52.132;21.062;2024-03-07T14:39:42;0.00;;;0.00;;
39340;SDS011;25059;52.132;21.062;2024-03-07T14:42:28;0.10;;;0.10;;
39340;SDS011;25059;52.132;21.062;2024-03-07T14:45:20;0.10;;;0.10;;
39340;SDS011;25059;52.132;21.062;2024-03-07T14:48:21;0.10;;;0.10;;
39340;SDS011;25059;52.132;21.062;2024-03-07T14:51:07;0.10;;;0.10;;
39340;SDS011;25059;52.132;21.062;2024-03-07T14:53:54;0.10;;;0.10;;
39340;SDS011;25059;52.132;21.062;2024-03-07T14:56:43;0.10;;;0.10;;
39340;SDS011;25059;52.132;21.062;2024-03-07T14:59:30;0.10;;;0.10;;
39340;SDS011;25059;52.132;21.062;2024-03-07T15:02:19;0.10;;;0.10;;
39340;SDS011;25059;52.132;21.062;2024-03-07T15:05:08;0.10;;;0.10;;
39340;SDS011;25059;52.132;21.062;2024-03-07T15:07:53;0.10;;;0.10;;
39340;SDS011;25059;52.132;21.062;2024-03-07T15:10:42;0.08;;;0.08;;
39340;SDS011;25059;52.132;21.062;2024-03-07T15:13:34;0.10;;;0.10;;
39340;SDS011;25059;52.132;21.062;2024-03-07T15:16:19;0.10;;;0.10;;
39340;SDS011;25059;52.132;21.062;2024-03-07T15:19:09;0.10;;;0.10;;
39340;SDS011;25059;52.132;21.062;2024-03-07T15:21:53;0.10;;;0.10;;
39340;SDS011;25059;52.132;21.062;2024-03-07T15:24:43;0.20;;;0.20;;
39340;SDS011;25059;52.132;21.062;2024-03-07T15:27:33;0.10;;;0.10;;
39340;SDS011;25059;52.132;21.062;2024-03-07T15:30:27;0.10;;;0.10;;
39340;SDS011;25059;52.132;21.062;2024-03-07T15:33:20;0.10;;;0.10;;
39340;SDS011;25059;52.132;21.062;2024-03-07T15:36:21;0.20;;;0.20;;
39340;SDS011;25059;52.132;21.062;2024-03-07T15:39:18;0.20;;;0.20;;
39340;SDS011;25059;52.132;21.062;2024-03-07T15:42:10;0.20;;;0.20;;
39340;SDS011;25059;52.132;21.062;2024-03-07T15:45:00;0.20;;;0.20;;
39340;SDS011;25059;52.132;21.062;2024-03-07T15:47:46;0.20;;;0.20;;
39340;SDS011;25059;52.132;21.062;2024-03-07T15:50:35;0.20;;;0.20;;
39340;SDS011;25059;52.132;21.062;2024-03-07T15:53:34;0.20;;;0.20;;
39340;SDS011;25059;52.132;21.062;2024-03-07T15:56:59;0.10;;;0.10;;
39340;SDS011;25059;52.132;21.062;2024-03-07T16:00:05;0.20;;;0.20;;
39340;SDS011;25059;52.132;21.062;2024-03-07T16:04:19;0.15;;;0.15;;
39340;SDS011;25059;52.132;21.062;2024-03-07T16:07:13;0.10;;;0.10;;
39340;SDS011;25059;52.132;21.062;2024-03-07T16:13:24;0.10;;;0.10;;
39340;SDS011;25059;52.132;21.062;2024-03-07T16:16:25;0.20;;;0.20;;
39340;SDS011;25059;52.132;21.062;2024-03-07T16:19:10;0.20;;;0.20;;
39340;SDS011;25059;52.132;21.062;2024-03-07T16:21:56;0.10;;;0.10;;
39340;SDS011;25059;52.132;21.062;2024-03-07T16:24:47;0.20;;;0.20;;
39340;SDS011;25059;52.132;21.062;2024-03-07T16:27:34;0.20;;;0.20;;
39340;SDS011;25059;52.132;21.062;2024-03-07T16:30:48;0.13;;;0.13;;
39340;SDS011;25059;52.132;21.062;2024-03-07T16:33:30;0.15;;;0.15;;
39340;SDS011;25059;52.132;21.062;2024-03-07T16:36:17;0.20;;;0.20;;
39340;SDS011;25059;52.132;21.062;2024-03-07T16:39:05;0.20;;;0.20;;
39340;SDS011;25059;52.132;21.062;2024-03-07T16:42:01;0.20;;;0.20;;
39340;SDS011;25059;52.132;21.062;2024-03-07T16:44:51;0.20;;;0.20;;
39340;SDS011;25059;52.132;21.062;2024-03-07T16:47:37;0.20;;;0.20;;
39340;SDS011;25059;52.132;21.062;2024-03-07T16:50:31;0.25;;;0.25;;
39340;SDS011;25059;52.132;21.062;2024-03-07T16:53:35;0.30;;;0.30;;
39340;SDS011;25059;52.132;21.062;2024-03-07T16:56:45;0.30;;;0.30;;
39340;SDS011;25059;52.132;21.062;2024-03-07T17:00:43;0.20;;;0.20;;
39340;SDS011;25059;52.132;21.062;2024-03-07T17:03:31;0.30;;;0.30;;
39340;SDS011;25059;52.132;21.062;2024-03-07T17:06:26;0.30;;;0.30;;
39340;SDS011;25059;52.132;21.062;2024-03-07T17:09:15;0.30;;;0.30;;
39340;SDS011;25059;52.132;21.062;2024-03-07T17:14:57;0.30;;;0.30;;
39340;SDS011;25059;52.132;21.062;2024-03-07T17:17:42;0.30;;;0.30;;
39340;SDS011;25059;52.132;21.062;2024-03-07T17:20:32;0.30;;;0.30;;
39340;SDS011;25059;52.132;21.062;2024-03-07T17:23:18;0.30;;;0.30;;
39340;SDS011;25059;52.132;21.062;2024-03-07T17:26:02;0.20;;;0.20;;
39340;SDS011;25059;52.132;21.062;2024-03-07T17:28:48;0.20;;;0.20;;
39340;SDS011;25059;52.132;21.062;2024-03-07T17:31:35;0.40;;;0.40;;
39340;SDS011;25059;52.132;21.062;2024-03-07T17:34:20;0.30;;;0.30;;
39340;SDS011;25059;52.132;21.062;2024-03-07T17:37:08;0.20;;;0.20;;
39340;SDS011;25059;52.132;21.062;2024-03-07T17:39:56;0.30;;;0.30;;
39340;SDS011;25059;52.132;21.062;2024-03-07T17:42:43;0.30;;;0.30;;
39340;SDS011;25059;52.132;21.062;2024-03-07T17:45:30;0.30;;;0.30;;
39340;SDS011;25059;52.132;21.062;2024-03-07T17:51:06;0.30;;;0.30;;
39340;SDS011;25059;52.132;21.062;2024-03-07T17:53:52;0.20;;;0.20;;
39340;SDS011;25059;52.132;21.062;2024-03-07T17:56:39;0.20;;;0.20;;
39340;SDS011;25059;52.132;21.062;2024-03-07T17:59:27;0.30;;;0.30;;
39340;SDS011;25059;52.132;21.062;2024-03-07T18:02:14;0.30;;;0.30;;
39340;SDS011;25059;52.132;21.062;2024-03-07T18:05:01;0.30;;;0.30;;
39340;SDS011;25059;52.132;21.062;2024-03-07T18:07:53;0.30;;;0.30;;
39340;SDS011;25059;52.132;21.062;2024-03-07T18:10:38;0.20;;;0.20;;
39340;SDS011;25059;52.132;21.062;2024-03-07T18:13:23;0.30;;;0.30;;
39340;SDS011;25059;52.132;21.062;2024-03-07T18:16:08;0.40;;;0.40;;
39340;SDS011;25059;52.132;21.062;2024-03-07T18:18:54;0.30;;;0.30;;
39340;SDS011;25059;52.132;21.062;2024-03-07T18:21:39;0.30;;;0.30;;
39340;SDS011;25059;52.132;21.062;2024-03-07T18:24:24;0.30;;;0.30;;
39340;SDS011;25059;52.132;21.062;2024-03-07T18:27:10;0.30;;;0.30;;
39340;SDS011;25059;52.132;21.062;2024-03-07T18:29:56;0.30;;;0.30;;
39340;SDS011;25059;52.132;21.062;2024-03-07T18:32:54;0.30;;;0.30;;
39340;SDS011;25059;52.132;21.062;2024-03-07T18:35:40;0.30;;;0.30;;
39340;SDS011;25059;52.132;21.062;2024-03-07T18:38:26;0.20;;;0.20;;
39340;SDS011;25059;52.132;21.062;2024-03-07T18:41:11;0.20;;;0.20;;
39340;SDS011;25059;52.132;21.062;2024-03-07T18:43:55;0.20;;;0.20;;
39340;SDS011;25059;52.132;21.062;2024-03-07T18:46:40;0.30;;;0.30;;
39340;SDS011;25059;52.132;21.062;2024-03-07T18:49:35;0.22;;;0.22;;
39340;SDS011;25059;52.132;21.062;2024-03-07T18:52:20;0.20;;;0.20;;
39340;SDS011;25059;52.132;21.062;2024-03-07T18:55:09;0.30;;;0.30;;
39340;SDS011;25059;52.132;21.062;2024-03-07T19:01:52;0.20;;;0.20;;
39340;SDS011;25059;52.132;21.062;2024-03-07T19:04:37;0.40;;;0.40;;
39340;SDS011;25059;52.132;21.062;2024-03-07T19:07:21;0.30;;;0.30;;
39340;SDS011;25059;52.132;21.062;2024-03-07T19:10:06;0.20;;;0.20;;
39340;SDS011;25059;52.132;21.062;2024-03-07T19:13:01;0.30;;;0.30;;
39340;SDS011;25059;52.132;21.062;2024-03-07T19:15:46;0.30;;;0.30;;
39340;SDS011;25059;52.132;21.062;2024-03-07T19:18:32;0.30;;;0.30;;
39340;SDS011;25059;52.132;21.062;2024-03-07T19:21:18;0.32;;;0.32;;
39340;SDS011;25059;52.132;21.062;2024-03-07T19:24:05;0.30;;;0.30;;
39340;SDS011;25059;52.132;21.062;2024-03-07T19:26:53;0.30;;;0.30;;
39340;SDS011;25059;52.132;21.062;2024-03-07T19:29:40;0.30;;;0.30;;
39340;SDS011;25059;52.132;21.062;2024-03-07T19:32:29;0.20;;;0.20;;
39340;SDS011;25059;52.132;21.062;2024-03-07T19:35:16;0.30;;;0.30;;
39340;SDS011;25059;52.132;21.062;2024-03-07T19:38:01;0.30;;;0.30;;
39340;SDS011;25059;52.132;21.062;2024-03-07T19:40:50;0.20;;;0.20;;
39340;SDS011;25059;52.132;21.062;2024-03-07T19:43:35;0.40;;;0.40;;
39340;SDS011;25059;52.132;21.062;2024-03-07T19:46:20;0.30;;;0.30;;
39340;SDS011;25059;52.132;21.062;2024-03-07T19:49:04;0.30;;;0.30;;
39340;SDS011;25059;52.132;21.062;2024-03-07T19:51:50;0.30;;;0.30;;
39340;SDS011;25059;52.132;21.062;2024-03-07T19:54:36;0.30;;;0.30;;
39340;SDS011;25059;52.132;21.062;2024-03-07T19:57:22;0.30;;;0.30;;
39340;SDS011;25059;52.132;21.062;2024-03-07T20:00:11;0.30;;;0.30;;
39340;SDS011;25059;52.132;21.062;2024-03-07T20:03:04;0.30;;;0.30;;
39340;SDS011;25059;52.132;21.062;2024-03-07T20:05:50;0.20;;;0.20;;
39340;SDS011;25059;52.132;21.062;2024-03-07T20:08:36;0.20;;;0.20;;
39340;SDS011;25059;52.132;21.062;2024-03-07T20:11:21;0.20;;;0.20;;
39340;SDS011;25059;52.132;21.062;2024-03-07T20:14:05;0.30;;;0.30;;
39340;SDS011;25059;52.132;21.062;2024-03-07T20:16:50;0.30;;;0.30;;
39340;SDS011;25059;52.132;21.062;2024-03-07T20:19:35;0.30;;;0.30;;
39340;SDS011;25059;52.132;21.062;2024-03-07T20:22:20;0.30;;;0.30;;
39340;SDS011;25059;52.132;21.062;2024-03-07T20:25:05;0.20;;;0.20;;
39340;SDS011;25059;52.132;21.062;2024-03-07T20:27:50;0.20;;;0.20;;
39340;SDS011;25059;52.132;21.062;2024-03-07T20:30:37;0.30;;;0.30;;
39340;SDS011;25059;52.132;21.062;2024-03-07T20:33:21;0.20;;;0.20;;
39340;SDS011;25059;52.132;21.062;2024-03-07T20:36:08;0.30;;;0.30;;
39340;SDS011;25059;52.132;21.062;2024-03-07T20:38:52;0.20;;;0.20;;
39340;SDS011;25059;52.132;21.062;2024-03-07T20:41:37;0.10;;;0.10;;
39340;SDS011;25059;52.132;21.062;2024-03-07T20:44:21;0.30;;;0.30;;
39340;SDS011;25059;52.132;21.062;2024-03-07T20:47:06;0.30;;;0.30;;
39340;SDS011;25059;52.132;21.062;2024-03-07T20:49:51;0.20;;;0.20;;
39340;SDS011;25059;52.132;21.062;2024-03-07T20:52:36;0.20;;;0.20;;
39340;SDS011;25059;52.132;21.062;2024-03-07T20:55:22;0.20;;;0.20;;
39340;SDS011;25059;52.132;21.062;2024-03-07T20:58:07;0.20;;;0.20;;
39340;SDS011;25059;52.132;21.062;2024-03-07T21:00:53;0.20;;;0.20;;
39340;SDS011;25059;52.132;21.062;2024-03-07T21:03:38;0.30;;;0.30;;
39340;SDS011;25059;52.132;21.062;2024-03-07T21:06:25;0.28;;;0.28;;
39340;SDS011;25059;52.132;21.062;2024-03-07T21:09:10;0.30;;;0.30;;
39340;SDS011;25059;52.132;21.062;2024-03-07T21:11:55;0.20;;;0.20;;
39340;SDS011;25059;52.132;21.062;2024-03-07T21:14:40;0.30;;;0.30;;
39340;SDS011;25059;52.132;21.062;2024-03-07T21:17:26;0.25;;;0.25;;
39340;SDS011;25059;52.132;21.062;2024-03-07T21:20:13;0.20;;;0.20;;
39340;SDS011;25059;52.132;21.062;2024-03-07T21:23:02;0.20;;;0.20;;
39340;SDS011;25059;52.132;21.062;2024-03-07T21:25:51;0.22;;;0.22;;
39340;SDS011;25059;52.132;21.062;2024-03-07T21:28:35;0.10;;;0.10;;
39340;SDS011;25059;52.132;21.062;2024-03-07T21:31:21;0.20;;;0.20;;
39340;SDS011;25059;52.132;21.062;2024-03-07T21:34:05;0.20;;;0.20;;
39340;SDS011;25059;52.132;21.062;2024-03-07T21:36:51;0.20;;;0.20;;
39340;SDS011;25059;52.132;21.062;2024-03-07T21:39:35;0.20;;;0.20;;
39340;SDS011;25059;52.132;21.062;2024-03-07T21:42:20;0.20;;;0.20;;
39340;SDS011;25059;52.132;21.062;2024-03-07T21:45:04;0.20;;;0.20;;
39340;SDS011;25059;52.132;21.062;2024-03-07T21:47:49;0.20;;;0.20;;
39340;SDS011;25059;52.132;21.062;2024-03-07T21:50:34;0.20;;;0.20;;
39340;SDS011;25059;52.132;21.062;2024-03-07T21:53:20;0.20;;;0.20;;
39340;SDS011;25059;52.132;21.062;2024-03-07T21:56:04;0.20;;;0.20;;
39340;SDS011;25059;52.132;21.062;2024-03-07T21:58:50;0.30;;;0.30;;
39340;SDS011;25059;52.132;21.062;2024-03-07T22:01:35;0.38;;;0.38;;
